Terminal Aerodrome Forecast
Issued by NWS

Home | Current Version | Previous Version | Text Only | Print | Product List | Glossary On
Versions: 1 2 3 4 5 6 7 8 9 10 11 12 13 14 15 16 17 18 19 20 21 22 23 24 25 26 27 28 29
000
FTUS41 KBOX 280218 AAA
TAFACK
TAF AMD
KACK 280218Z 2802/2824 24006KT 1/2SM FG OVC001
     FM281100 35004KT 6SM BR SCT001
     FM281300 35011KT P6SM SCT010=

USA.gov is the U.S. government's official web portal to all federal, state and local government web resources and services.